Terminal Aerodrome Forecast
Issued by NWS Shreveport, LA

Home | Current Version | Previous Version | Text Only | Print | Product List | Glossary On
Versions: 1 2 3 4 5 6 7 8 9 10 11 12 13 14 15 16
000
FTUS44 KSHV 071424 AAA
TAFGGG
TAF AMD
KGGG 071424Z 0714/0812 18010KT P6SM SKC
      TEMPO 0714/0716 5SM BR BKN008
     FM071600 19012G18KT P6SM SCT035 SCT250
     FM080000 16010KT P6SM VCTS BKN045CB BKN250
     FM080100 17008KT P6SM BKN250
     FM080800 18011KT P6SM OVC015=

USA.gov is the U.S. government's official web portal to all federal, state and local government web resources and services.